Time;durP1;ratioP1;P1;durP2;ratioP2;P2;SDS_P1;SDS_P2;PMS_P1;PMS_P2;Temp;Humidity;BMP_temperature;BMP_pressure;BME280_temperature;BME280_humidity;BME280_pressure;Samples;Min_cycle;Max_cycle;Signal;HPM_P1;HPM_P2
2021/01/19 00:01:34;;;;;;;10.58;6.87;;;;;;;4.49;82.12;100216.16;2960719;80;21113;-63
2021/01/19 00:05:38;;;;;;;10.75;5.95;;;;;;;4.46;82.24;100221.61;2960805;80;21165;-64
2021/01/19 00:09:40;;;;;;;13.68;8.25;;;;;;;4.43;82.40;100216.04;2960324;80;21137;-64
2021/01/19 00:13:43;;;;;;;7.22;6.53;;;;;;;4.41;82.50;100216.59;2960671;80;21101;-63
2021/01/19 00:17:46;;;;;;;12.73;7.28;;;;;;;4.39;82.70;100215.84;2960954;80;21113;-65
2021/01/19 00:21:49;;;;;;;7.53;5.35;;;;;;;4.35;82.69;100216.95;2960486;80;21129;-64
2021/01/19 00:25:52;;;;;;;5.70;4.53;;;;;;;4.32;82.91;100221.06;2960581;80;21153;-65
2021/01/19 00:29:55;;;;;;;9.05;4.28;;;;;;;4.29;83.09;100209.39;2960705;80;21145;-64
2021/01/19 00:33:59;;;;;;;8.28;5.72;;;;;;;4.31;83.09;100214.58;2960265;79;21142;-64
2021/01/19 00:38:04;;;;;;;5.05;4.37;;;;;;;4.29;83.21;100206.75;2961018;80;21129;-64
2021/01/19 00:42:07;;;;;;;7.60;5.65;;;;;;;4.29;83.13;100219.92;2960552;80;21129;-65
2021/01/19 00:46:10;;;;;;;6.28;4.80;;;;;;;4.26;83.17;100213.52;2960597;80;21167;-64
2021/01/19 00:50:14;;;;;;;6.87;5.45;;;;;;;4.25;83.14;100207.88;2960701;80;21086;-65
2021/01/19 00:54:17;;;;;;;7.83;5.80;;;;;;;4.24;83.15;100205.72;2960633;80;21094;-65
2021/01/19 00:58:20;;;;;;;8.58;5.62;;;;;;;4.23;83.27;100207.11;2960592;80;21133;-64
2021/01/19 01:02:23;;;;;;;8.93;5.90;;;;;;;4.26;83.30;100201.66;2960379;80;21548;-65
2021/01/19 01:06:26;;;;;;;7.00;6.03;;;;;;;4.29;83.25;100198.40;2960580;80;21551;-65
2021/01/19 01:10:29;;;;;;;9.38;7.17;;;;;;;4.33;83.17;100192.95;2960473;80;21584;-65
2021/01/19 01:14:35;;;;;;;9.43;6.87;;;;;;;4.35;83.01;100189.77;2960574;80;21109;-66
2021/01/19 01:18:40;;;;;;;7.75;6.67;;;;;;;4.34;82.84;100188.92;2982398;79;21603;-66
2021/01/19 01:22:45;;;;;;;11.25;7.45;;;;;;;4.35;82.71;100184.04;3013803;78;21137;-66
2021/01/19 01:26:54;;;;;;;9.33;7.42;;;;;;;4.36;82.77;100183.10;3014020;78;21094;-66
2021/01/19 01:30:57;;;;;;;11.80;7.28;;;;;;;4.35;82.82;100176.14;3013624;79;21604;-65
2021/01/19 01:35:01;;;;;;;9.80;6.08;;;;;;;4.36;82.80;100171.70;3013824;79;21584;-65
2021/01/19 01:39:04;;;;;;;7.37;5.75;;;;;;;4.37;82.90;100171.63;3014070;79;21161;-65
2021/01/19 01:43:12;;;;;;;7.53;6.60;;;;;;;4.36;82.91;100175.20;3013751;78;22090;-66
2021/01/19 01:47:25;;;;;;;6.92;5.55;;;;;;;4.40;82.97;100166.17;3013811;79;21117;-67
2021/01/19 01:51:29;;;;;;;6.45;5.45;;;;;;;4.37;82.88;100164.18;2989488;79;21144;-65
2021/01/19 01:55:35;;;;;;;7.33;5.53;;;;;;;4.37;83.04;100162.41;2961365;80;21112;-65
2021/01/19 01:59:38;;;;;;;7.62;5.95;;;;;;;4.38;83.00;100157.52;2961259;80;21121;-66
2021/01/19 02:03:41;;;;;;;6.97;5.37;;;;;;;4.40;82.84;100171.45;2961414;80;21136;-65
2021/01/19 02:08:12;;;;;;;9.13;6.00;;;;;;;4.38;82.85;100162.78;2961292;80;21101;-66
2021/01/19 02:12:20;;;;;;;8.95;6.17;;;;;;;4.36;83.01;100163.80;2961249;79;21127;-64
2021/01/19 02:16:34;;;;;;;10.48;6.95;;;;;;;4.38;82.88;100160.61;2961604;80;21140;-65
2021/01/19 02:21:08;;;;;;;10.82;6.85;;;;;;;4.39;82.92;100157.90;2961293;80;21140;-65
2021/01/19 02:25:39;;;;;;;9.78;7.85;;;;;;;4.38;82.96;100158.84;2961372;79;21132;-66
2021/01/19 02:30:16;;;;;;;8.15;7.42;;;;;;;4.36;82.89;100146.23;2960971;79;21094;-66
2021/01/19 02:34:53;;;;;;;9.37;6.90;;;;;;;4.38;82.94;100152.25;2960553;80;21098;-65
2021/01/19 02:39:02;;;;;;;14.23;6.03;;;;;;;4.38;82.86;100152.70;2960616;80;21298;-64
2021/01/19 02:43:13;;;;;;;9.23;6.65;;;;;;;4.37;82.87;100153.19;2960840;80;21128;-65
2021/01/19 02:47:17;;;;;;;8.40;6.30;;;;;;;4.37;82.95;100153.64;2960569;80;21734;-66
2021/01/19 02:51:23;;;;;;;5.72;5.00;;;;;;;4.39;82.98;100159.22;2960691;80;21097;-66
2021/01/19 02:55:28;;;;;;;7.28;5.15;;;;;;;4.37;82.98;100156.28;2960963;80;21164;-64
2021/01/19 02:59:42;;;;;;;5.53;3.85;;;;;;;4.39;83.08;100148.68;2960974;80;21093;-64
2021/01/19 03:03:49;;;;;;;7.12;4.78;;;;;;;4.38;82.97;100160.61;2960741;79;21121;-64
2021/01/19 03:07:53;;;;;;;7.60;5.85;;;;;;;4.40;83.03;100154.33;2960662;79;21125;-65
2021/01/19 03:11:58;;;;;;;4.60;4.20;;;;;;;4.39;83.03;100160.53;2960688;80;21117;-65
2021/01/19 03:16:16;;;;;;;6.78;4.45;;;;;;;4.40;83.17;100162.68;2960546;80;21105;-64
2021/01/19 03:20:22;;;;;;;6.10;5.50;;;;;;;4.39;83.20;100166.25;2960681;80;21121;-64
2021/01/19 03:24:24;;;;;;;5.40;4.72;;;;;;;4.36;83.24;100162.48;2960418;80;21129;-64
2021/01/19 03:28:27;;;;;;;8.50;6.10;;;;;;;4.35;83.34;100161.66;2960589;79;21073;-64
2021/01/19 03:32:30;;;;;;;5.30;4.45;;;;;;;4.36;83.35;100154.12;2960751;80;21558;-65
2021/01/19 03:36:33;;;;;;;6.42;5.20;;;;;;;4.39;83.37;100153.08;2960491;80;21133;-65
2021/01/19 03:40:38;;;;;;;6.67;5.20;;;;;;;4.40;83.32;100156.96;2960803;80;21105;-65
2021/01/19 03:44:41;;;;;;;10.00;5.15;;;;;;;4.42;83.21;100151.12;2960523;79;21118;-65
2021/01/19 03:48:44;;;;;;;5.97;5.03;;;;;;;4.45;83.19;100157.16;2960317;80;21105;-66
2021/01/19 03:52:46;;;;;;;5.28;4.78;;;;;;;4.46;83.19;100149.63;2960976;80;21074;-65
2021/01/19 03:56:49;;;;;;;5.37;4.87;;;;;;;4.46;83.10;100140.41;2960600;80;21121;-65
2021/01/19 04:00:53;;;;;;;8.43;4.83;;;;;;;4.46;83.08;100141.72;2949375;80;21607;-65
2021/01/19 04:04:56;;;;;;;5.25;4.10;;;;;;;4.46;83.12;100140.41;2909139;81;21165;-65
2021/01/19 04:08:59;;;;;;;7.47;5.80;;;;;;;4.47;83.07;100137.70;2909156;81;21137;-65
2021/01/19 04:13:02;;;;;;;6.70;4.78;;;;;;;4.45;83.17;100138.27;2909188;81;21125;-64
2021/01/19 04:17:05;;;;;;;6.72;5.08;;;;;;;4.43;83.15;100140.97;2909094;81;21145;-65
2021/01/19 04:21:09;;;;;;;7.45;5.58;;;;;;;4.42;83.20;100135.33;2909484;81;21149;-66
2021/01/19 04:25:14;;;;;;;6.33;3.92;;;;;;;4.44;83.12;100135.25;2908736;81;21161;-64
2021/01/19 04:29:17;;;;;;;4.87;4.30;;;;;;;4.43;83.11;100131.75;2908974;81;21149;-64
2021/01/19 04:33:20;;;;;;;8.95;6.67;;;;;;;4.44;83.03;100133.93;2908925;81;21160;-65
2021/01/19 04:37:22;;;;;;;6.30;4.30;;;;;;;4.47;83.02;100132.88;2908697;81;21618;-64
2021/01/19 04:41:28;;;;;;;6.53;4.75;;;;;;;4.50;82.91;100124.80;2908902;81;21121;-63
2021/01/19 04:45:34;;;;;;;7.27;5.27;;;;;;;4.51;82.91;100132.63;2909068;81;21619;-64
2021/01/19 04:49:46;;;;;;;8.35;5.95;;;;;;;4.59;82.70;100128.22;3125969;76;22834;-63
2021/01/19 04:54:05;;;;;;;8.15;5.58;;;;;;;4.56;82.67;100128.41;3078253;77;21701;-62
2021/01/19 04:58:13;;;;;;;6.45;5.05;;;;;;;4.58;82.47;100133.11;3078166;77;21121;-62
2021/01/19 05:02:56;;;;;;;9.75;5.70;;;;;;;4.61;82.42;100130.29;3078255;77;21426;-63
2021/01/19 05:07:24;;;;;;;4.55;4.15;;;;;;;4.63;82.22;100135.00;3078077;77;21547;-63
2021/01/19 05:11:29;;;;;;;6.50;5.80;;;;;;;4.65;82.05;100124.38;3078340;77;21749;-63
2021/01/19 05:15:48;;;;;;;11.20;5.85;;;;;;;4.66;81.97;100133.48;3078280;77;21160;-63
2021/01/19 05:19:51;;;;;;;6.87;5.92;;;;;;;4.70;81.83;100124.45;3078234;77;21093;-62
2021/01/19 05:23:56;;;;;;;5.67;4.50;;;;;;;4.74;81.61;100131.72;3078272;77;21140;-63
2021/01/19 05:28:00;;;;;;;5.65;4.60;;;;;;;4.73;81.44;100130.51;3078114;77;21145;-64
2021/01/19 05:32:06;;;;;;;7.33;5.25;;;;;;;4.73;81.39;100122.12;3078235;77;21132;-63
2021/01/19 05:36:11;;;;;;;8.43;4.62;;;;;;;4.76;81.41;100119.78;3078177;77;21531;-64
2021/01/19 05:40:15;;;;;;;8.23;6.12;;;;;;;4.78;81.32;100119.21;3078550;77;21125;-63
2021/01/19 05:44:33;;;;;;;9.60;5.35;;;;;;;4.81;81.11;100120.34;3071437;77;21147;-65
2021/01/19 05:48:39;;;;;;;8.53;5.47;;;;;;;4.83;80.96;100121.09;3027885;77;21145;-64
2021/01/19 05:52:42;;;;;;;7.00;4.85;;;;;;;4.84;80.89;100114.42;3055869;77;21122;-63
2021/01/19 05:56:49;;;;;;;8.45;5.03;;;;;;;4.86;80.75;100114.31;3046242;77;21133;-65
2021/01/19 06:00:53;;;;;;;4.97;4.08;;;;;;;4.89;80.66;100111.48;3040472;78;21108;-63
2021/01/19 06:05:01;;;;;;;8.00;6.15;;;;;;;4.86;80.49;100108.59;3021576;78;21495;-64
2021/01/19 06:09:06;;;;;;;8.08;4.83;;;;;;;4.88;80.56;100120.82;3020277;78;21093;-64
2021/01/19 06:13:18;;;;;;;5.15;4.67;;;;;;;4.88;80.45;100124.29;2990321;78;21116;-63
2021/01/19 06:17:22;;;;;;;8.33;5.95;;;;;;;4.90;80.32;100117.63;3021610;77;21156;-63
2021/01/19 06:25:45;;;;;;;10.50;6.37;;;;;;;4.95;80.25;100121.67;3129745;75;22376;-64
2021/01/19 06:30:07;;;;;;;8.55;5.80;;;;;;;4.90;80.20;100119.77;3083652;77;21583;-63
2021/01/19 06:34:13;;;;;;;6.53;4.67;;;;;;;4.93;80.06;100116.97;3031726;77;21096;-63
2021/01/19 06:38:17;;;;;;;8.78;6.08;;;;;;;4.93;80.02;100126.20;2988697;78;21140;-63
2021/01/19 06:42:25;;;;;;;7.20;6.50;;;;;;;4.92;79.92;100111.33;3022706;78;21567;-64
2021/01/19 06:46:29;;;;;;;8.15;6.10;;;;;;;4.93;79.92;100110.84;3050647;77;21104;-64
2021/01/19 06:50:38;;;;;;;8.23;5.92;;;;;;;4.94;79.79;100105.48;3064984;77;21128;-64
2021/01/19 06:54:58;;;;;;;6.37;5.03;;;;;;;4.97;79.70;100098.70;3065034;77;21120;-63
2021/01/19 06:59:06;;;;;;;6.12;5.00;;;;;;;5.00;79.56;100106.41;3062611;77;21112;-63
2021/01/19 07:03:23;;;;;;;7.75;5.53;;;;;;;4.99;79.49;100110.00;3064335;77;21128;-64
2021/01/19 07:07:32;;;;;;;;;;;;;;;5.02;79.46;100105.47;3067764;77;21673;-64
2021/01/19 07:12:00;;;;;;;5.40;4.80;;;;;;;5.02;79.29;100101.52;3065098;77;20174;-63
2021/01/19 07:16:10;;;;;;;6.25;5.17;;;;;;;5.03;79.26;100096.62;3064917;77;21124;-63
2021/01/19 07:20:31;;;;;;;12.60;5.80;;;;;;;5.04;79.13;100099.62;3065081;77;21124;-63
2021/01/19 07:24:41;;;;;;;6.40;5.42;;;;;;;5.03;79.15;100101.89;3064957;77;21120;-64
2021/01/19 07:28:45;;;;;;;5.00;4.50;;;;;;;5.06;79.00;100097.29;3064784;77;21128;-64
2021/01/19 07:32:51;;;;;;;7.92;5.25;;;;;;;5.07;78.98;100104.71;3065138;77;21116;-63
2021/01/19 07:36:56;;;;;;;6.97;6.25;;;;;;;5.06;79.03;100108.29;3064298;77;21159;-64
2021/01/19 07:40:58;;;;;;;8.73;6.08;;;;;;;5.08;78.96;100109.04;3063848;76;22216;-63
2021/01/19 07:45:05;;;;;;;10.63;5.58;;;;;;;5.10;79.01;100112.42;3063777;77;21617;-63
2021/01/19 07:49:10;;;;;;;;;;;;;;;5.14;78.94;100104.23;3066721;77;21638;-65
2021/01/19 07:53:13;;;;;;;7.40;6.12;;;;;;;5.20;78.64;100104.80;3063956;77;20123;-64
2021/01/19 07:57:17;;;;;;;8.18;6.28;;;;;;;5.18;78.64;100097.00;3066702;77;21555;-65
2021/01/19 08:01:34;;;;;;;7.75;5.55;;;;;;;5.19;78.69;100090.77;3065735;77;21139;-65
2021/01/19 08:05:38;;;;;;;11.63;5.55;;;;;;;5.25;78.54;100085.59;3073381;77;21104;-65
2021/01/19 08:09:42;;;;;;;8.40;5.35;;;;;;;5.35;78.38;100077.45;3070593;77;21109;-65
2021/01/19 08:13:59;;;;;;;6.55;5.47;;;;;;;5.39;77.98;100075.48;3077238;77;21129;-65
2021/01/19 08:18:05;;;;;;;6.05;5.12;;;;;;;5.44;77.65;100077.34;3071726;77;21105;-65
2021/01/19 08:22:12;;;;;;;6.35;5.80;;;;;;;5.50;77.60;100073.02;3021545;77;21171;-65
2021/01/19 08:26:17;;;;;;;8.10;5.50;;;;;;;5.60;77.39;100075.05;3075590;76;21101;-65
2021/01/19 08:30:26;;;;;;;8.50;6.50;;;;;;;5.69;77.01;100074.44;3077467;77;21539;-65
2021/01/19 08:34:32;;;;;;;7.75;5.80;;;;;;;5.75;76.62;100074.06;3077579;77;21116;-65
2021/01/19 08:38:35;;;;;;;10.50;6.50;;;;;;;5.80;76.39;100070.64;3077506;77;21152;-65
2021/01/19 08:42:41;;;;;;;11.68;6.78;;;;;;;5.83;76.23;100061.20;3077999;76;21121;-65
2021/01/19 08:46:45;;;;;;;10.88;6.47;;;;;;;5.86;76.06;100055.71;3076394;76;21878;-67
2021/01/19 08:50:48;;;;;;;6.62;3.80;;;;;;;5.89;76.15;100056.45;3077100;77;21156;-65
2021/01/19 08:54:52;;;;;;;9.28;5.08;;;;;;;5.92;76.23;100050.51;3076890;77;21179;-65
2021/01/19 08:58:55;;;;;;;12.60;8.30;;;;;;;6.03;76.63;100036.62;3077286;77;21462;-66
2021/01/19 09:02:59;;;;;;;12.80;6.90;;;;;;;6.14;76.06;100035.89;3077104;77;21312;-66
2021/01/19 09:07:10;;;;;;;7.53;6.17;;;;;;;6.23;75.77;100026.05;3076957;77;21137;-66
2021/01/19 09:11:13;;;;;;;9.70;7.12;;;;;;;6.29;75.47;100015.05;3077555;77;22172;-66
2021/01/19 09:15:18;;;;;;;9.00;6.67;;;;;;;6.39;75.30;100013.95;3077266;77;21117;-66
2021/01/19 09:19:22;;;;;;;7.58;5.83;;;;;;;6.47;75.00;100012.56;3077597;77;21089;-66
2021/01/19 09:23:32;;;;;;;6.75;5.03;;;;;;;6.49;74.64;100010.69;3072640;77;21572;-66
2021/01/19 09:27:35;;;;;;;14.33;12.75;;;;;;;6.51;74.38;100008.78;3055333;77;21125;-67
2021/01/19 09:31:41;;;;;;;16.37;13.35;;;;;;;6.57;74.03;100001.73;3055127;77;21515;-66
2021/01/19 09:35:45;;;;;;;25.37;16.60;;;;;;;6.58;73.71;99999.45;3056153;76;21133;-66
2021/01/19 09:39:48;;;;;;;16.00;11.53;;;;;;;6.63;73.73;99991.22;3054924;77;21121;-66
2021/01/19 09:43:55;;;;;;;11.30;9.00;;;;;;;6.64;73.53;99981.84;3055258;77;21138;-67
2021/01/19 09:47:59;;;;;;;9.23;8.18;;;;;;;6.72;73.23;99978.66;3054776;77;21121;-67
2021/01/19 09:52:13;;;;;;;17.37;12.25;;;;;;;6.79;73.17;99973.79;3035121;77;21124;-67
2021/01/19 09:56:17;;;;;;;13.60;9.35;;;;;;;6.85;72.79;99970.70;2999921;79;21566;-67
2021/01/19 10:00:27;;;;;;;12.53;9.13;;;;;;;6.91;72.80;99966.77;2919343;80;21191;-67
2021/01/19 10:04:31;;;;;;;14.55;11.33;;;;;;;6.96;72.47;99960.67;2918151;79;21125;-68
2021/01/19 10:08:38;;;;;;;17.20;11.88;;;;;;;7.02;71.88;99939.09;2927125;81;21117;-68
2021/01/19 10:12:43;;;;;;;12.55;9.38;;;;;;;7.04;71.79;99930.56;2910083;81;21141;-68
2021/01/19 10:16:53;;;;;;;16.27;9.75;;;;;;;7.13;71.54;99927.73;2926999;80;21121;-68
2021/01/19 10:20:55;;;;;;;15.48;12.15;;;;;;;7.18;71.29;99920.30;2928952;79;21148;-68
2021/01/19 10:24:59;;;;;;;17.27;11.45;;;;;;;7.26;71.20;99907.33;2948710;79;21523;-69
2021/01/19 10:29:02;;;;;;;18.32;14.58;;;;;;;7.31;70.85;99904.34;2905747;82;21144;-65
2021/01/19 10:33:05;;;;;;;20.30;14.15;;;;;;;7.27;70.14;99898.47;2905870;82;21108;-67
2021/01/19 10:37:10;;;;;;;23.73;15.30;;;;;;;7.23;69.90;99886.89;2905519;82;21534;-64
2021/01/19 10:41:29;;;;;;;21.12;17.45;;;;;;;7.26;69.67;99880.05;2906152;81;21598;-69
2021/01/19 10:45:34;;;;;;;18.27;12.20;;;;;;;7.20;69.11;99878.69;2919665;80;21117;-68
2021/01/19 10:49:37;;;;;;;20.35;14.43;;;;;;;7.17;69.17;99873.63;2919578;80;21143;-68
2021/01/19 10:53:41;;;;;;;26.00;16.48;;;;;;;7.18;69.30;99873.17;2925841;80;21527;-69
2021/01/19 10:57:44;;;;;;;29.63;20.20;;;;;;;7.19;69.20;99861.63;2941350;81;22263;-69
2021/01/19 11:01:48;;;;;;;38.38;23.73;;;;;;;7.15;68.99;99857.03;2941572;81;21136;-70
2021/01/19 11:05:52;;;;;;;24.02;17.35;;;;;;;7.07;68.90;99848.81;2941301;80;21128;-69
2021/01/19 11:09:55;;;;;;;17.90;11.65;;;;;;;7.06;69.21;99844.48;2941290;80;21109;-69
2021/01/19 11:14:03;;;;;;;14.33;11.50;;;;;;;7.09;68.84;99840.31;2941670;79;21610;-69
2021/01/19 11:18:04;;;;;;;15.08;10.55;;;;;;;7.05;69.24;99826.46;2941384;81;21164;-68
2021/01/19 11:22:09;;;;;;;20.62;10.70;;;;;;;7.03;68.97;99823.09;2941310;80;21582;-69
2021/01/19 11:26:12;;;;;;;25.77;15.05;;;;;;;6.99;69.17;99815.86;2951341;80;21151;-69
2021/01/19 11:30:16;;;;;;;32.83;22.05;;;;;;;7.03;69.55;99805.05;2906199;81;21128;-69
2021/01/19 11:34:21;;;;;;;26.45;21.33;;;;;;;7.02;69.36;99791.45;2954839;80;21101;-69
2021/01/19 11:38:24;;;;;;;16.50;14.38;;;;;;;7.06;69.30;99779.69;2955682;80;21607;-68
2021/01/19 11:42:27;;;;;;;13.45;11.00;;;;;;;7.05;69.15;99769.60;2954471;80;21077;-69
2021/01/19 11:46:35;;;;;;;14.00;10.00;;;;;;;7.02;68.95;99766.34;2954310;80;21195;-68
2021/01/19 11:50:38;;;;;;;16.82;10.63;;;;;;;6.98;69.56;99752.03;2954524;80;21560;-68
2021/01/19 11:54:43;;;;;;;15.75;11.20;;;;;;;6.97;69.30;99743.73;2954625;80;21098;-68
2021/01/19 11:58:47;;;;;;;13.22;11.08;;;;;;;6.93;69.31;99746.25;2954612;80;21149;-70
2021/01/19 12:02:50;;;;;;;18.32;12.47;;;;;;;6.92;69.46;99735.31;2954446;80;21153;-69
2021/01/19 12:06:53;;;;;;;13.62;10.88;;;;;;;6.88;69.12;99728.58;2954328;80;21137;-69
2021/01/19 12:10:56;;;;;;;12.60;10.40;;;;;;;6.84;69.34;99720.48;2954337;80;21544;-69
2021/01/19 12:14:59;;;;;;;18.85;11.97;;;;;;;6.81;69.33;99713.65;2954609;80;21153;-69
2021/01/19 12:19:09;;;;;;;15.68;11.57;;;;;;;6.78;69.21;99693.20;2954533;80;21133;-69
2021/01/19 12:23:08;;;;;;;13.10;10.45;;;;;;;6.68;69.42;99679.38;2953761;80;21133;-70
2021/01/19 12:27:11;;;;;;;11.18;7.85;;;;;;;6.65;69.44;99672.97;2961475;80;21160;-70
2021/01/19 12:31:14;;;;;;;11.38;8.68;;;;;;;6.64;69.57;99666.50;2961599;80;21184;-69
2021/01/19 12:35:17;;;;;;;13.78;9.68;;;;;;;6.58;69.45;99659.87;2962149;79;21100;-69
2021/01/19 12:39:20;;;;;;;11.80;8.68;;;;;;;6.51;69.83;99659.98;2961703;80;21160;-69
2021/01/19 12:43:23;;;;;;;14.78;9.88;;;;;;;6.46;69.74;99640.50;2961910;80;21121;-69
2021/01/19 12:47:26;;;;;;;16.35;11.15;;;;;;;6.43;69.84;99632.31;2961741;80;21516;-70
2021/01/19 12:51:29;;;;;;;18.87;12.98;;;;;;;6.42;70.10;99617.91;3004990;79;21155;-63
2021/01/19 12:55:33;;;;;;;20.77;12.90;;;;;;;6.45;70.41;99603.14;3015312;79;21460;-65
2021/01/19 12:59:37;;;;;;;31.57;16.50;;;;;;;6.43;70.04;99587.40;3015217;79;21101;-66
2021/01/19 13:03:41;;;;;;;26.20;18.80;;;;;;;6.47;69.61;99573.48;3008550;79;21151;-64
2021/01/19 13:07:44;;;;;;;23.50;15.93;;;;;;;6.48;69.69;99572.98;2961910;80;21140;-64
2021/01/19 13:11:47;;;;;;;20.43;14.85;;;;;;;6.46;69.60;99572.27;2961692;80;21477;-67
2021/01/19 13:15:50;;;;;;;18.05;12.45;;;;;;;6.41;69.36;99564.22;2961624;80;21558;-66
2021/01/19 13:19:53;;;;;;;22.52;14.58;;;;;;;6.34;69.84;99563.02;3005553;78;21568;-68
2021/01/19 13:23:55;;;;;;;17.90;12.33;;;;;;;6.32;69.56;99557.01;3014902;78;21129;-65
2021/01/19 13:27:59;;;;;;;10.63;9.38;;;;;;;6.31;69.86;99555.33;3003286;79;21105;-66
2021/01/19 13:32:04;;;;;;;16.85;12.28;;;;;;;6.28;69.54;99547.61;2978776;79;21147;-69
2021/01/19 13:36:11;;;;;;;15.38;9.28;;;;;;;6.24;69.65;99546.16;2985431;79;21149;-67
2021/01/19 13:40:15;;;;;;;17.57;12.47;;;;;;;6.17;69.74;99535.71;3004629;79;21614;-66
2021/01/19 13:44:18;;;;;;;21.73;12.58;;;;;;;6.08;70.05;99517.44;3012118;79;21160;-66
2021/01/19 13:48:21;;;;;;;40.95;14.35;;;;;;;6.06;70.12;99512.76;3015042;79;21125;-66
2021/01/19 13:52:24;;;;;;;22.20;12.65;;;;;;;6.00;69.98;99512.70;3015097;79;21578;-68
2021/01/19 13:56:28;;;;;;;24.07;13.80;;;;;;;5.93;70.21;99512.81;3014913;79;21595;-66
2021/01/19 14:00:31;;;;;;;30.40;15.18;;;;;;;5.85;70.22;99504.97;3014478;79;22162;-66
2021/01/19 14:04:37;;;;;;;26.27;16.25;;;;;;;5.82;70.45;99498.61;3014950;79;21160;-67
2021/01/19 14:08:40;;;;;;;31.17;20.05;;;;;;;5.78;70.39;99490.56;3014995;79;21547;-66
2021/01/19 14:12:44;;;;;;;25.60;16.12;;;;;;;5.78;70.49;99488.38;3014793;79;21348;-67
2021/01/19 14:16:50;;;;;;;18.32;11.70;;;;;;;5.78;70.57;99483.96;3014702;79;21579;-66
2021/01/19 14:20:54;;;;;;;10.18;7.53;;;;;;;5.78;70.40;99479.14;3014318;79;21141;-66
2021/01/19 14:24:58;;;;;;;13.25;7.17;;;;;;;5.76;70.53;99472.68;3014737;78;21113;-65
2021/01/19 14:29:05;;;;;;;9.60;5.33;;;;;;;5.72;70.21;99459.36;3011418;78;21145;-65
2021/01/19 14:33:09;;;;;;;9.55;7.20;;;;;;;5.67;70.30;99463.66;3037964;78;21121;-66
2021/01/19 14:37:15;;;;;;;8.00;5.15;;;;;;;5.63;70.36;99452.97;3037815;78;21105;-66
2021/01/19 14:41:18;;;;;;;9.98;6.22;;;;;;;5.61;70.69;99454.03;3038441;78;21116;-66
2021/01/19 14:45:22;;;;;;;8.65;6.15;;;;;;;5.64;70.67;99454.66;3022346;78;21140;-66
2021/01/19 14:49:25;;;;;;;9.23;7.28;;;;;;;5.58;70.74;99444.53;2982902;78;21117;-67
2021/01/19 14:53:27;;;;;;;8.35;5.28;;;;;;;5.52;70.81;99440.58;2994826;78;21105;-66
2021/01/19 14:57:33;;;;;;;7.97;5.75;;;;;;;5.47;70.85;99441.38;2962786;79;21629;-66
2021/01/19 15:01:44;;;;;;;11.05;5.87;;;;;;;5.43;70.96;99435.51;2970674;78;21541;-66
2021/01/19 15:05:56;;;;;;;10.78;5.58;;;;;;;5.42;70.92;99429.02;2961304;80;21120;-67
2021/01/19 15:09:59;;;;;;;12.63;8.78;;;;;;;5.34;71.14;99426.94;2961552;80;21135;-65
2021/01/19 15:14:04;;;;;;;19.50;11.38;;;;;;;5.29;71.12;99419.36;3014862;79;21161;-65
2021/01/19 15:18:10;;;;;;;11.55;7.20;;;;;;;5.28;70.89;99417.68;3014480;78;21677;-66
2021/01/19 15:22:13;;;;;;;9.95;5.15;;;;;;;5.33;70.84;99416.52;2987347;78;21548;-66
2021/01/19 15:26:16;;;;;;;12.55;5.85;;;;;;;5.33;70.95;99417.84;3000173;78;21103;-67
2021/01/19 15:30:23;;;;;;;9.93;4.20;;;;;;;5.29;71.04;99422.00;2979923;77;21152;-66
2021/01/19 15:34:26;;;;;;;4.67;4.25;;;;;;;5.25;71.57;99419.23;3027214;78;21128;-69
2021/01/19 15:38:29;;;;;;;11.38;4.72;;;;;;;5.13;72.33;99424.11;3082884;77;21081;-67
2021/01/19 15:42:32;;;;;;;11.08;5.45;;;;;;;5.01;73.50;99436.36;3027061;78;21101;-67
2021/01/19 15:46:38;;;;;;;11.83;6.20;;;;;;;4.87;74.66;99438.67;3082719;77;21078;-68
2021/01/19 15:50:42;;;;;;;6.85;4.65;;;;;;;4.63;75.88;99432.06;3026834;78;21587;-68
2021/01/19 15:54:45;;;;;;;5.60;4.33;;;;;;;4.45;76.94;99423.66;3036377;77;21101;-69
2021/01/19 15:58:48;;;;;;;6.42;4.15;;;;;;;4.33;77.82;99426.21;2973042;80;21095;-68
2021/01/19 16:02:51;;;;;;;7.53;4.80;;;;;;;4.26;78.33;99428.88;2973083;80;21573;-70
2021/01/19 16:06:55;;;;;;;9.68;5.58;;;;;;;4.18;78.86;99432.53;2972993;80;21139;-69
2021/01/19 16:10:58;;;;;;;5.25;4.05;;;;;;;4.18;79.13;99434.67;2973079;80;21110;-67
2021/01/19 16:15:02;;;;;;;4.92;3.45;;;;;;;4.12;79.45;99424.58;2973274;80;21070;-70
2021/01/19 16:19:08;;;;;;;7.62;4.33;;;;;;;4.07;79.76;99423.57;2973003;80;21134;-70
2021/01/19 16:23:11;;;;;;;5.85;4.40;;;;;;;4.05;80.11;99414.94;2973347;80;21110;-70
2021/01/19 16:27:14;;;;;;;9.63;4.97;;;;;;;4.03;80.45;99415.52;2966831;79;21119;-72
2021/01/19 16:31:29;;;;;;;11.73;5.47;;;;;;;4.02;80.66;99413.84;2963681;80;21123;-71
2021/01/19 16:35:32;;;;;;;8.70;5.33;;;;;;;4.12;80.48;99399.58;2963697;80;21115;-71
2021/01/19 16:39:35;;;;;;;13.50;9.48;;;;;;;4.09;80.57;99388.77;2963547;80;21553;-67
2021/01/19 16:43:38;;;;;;;12.65;8.18;;;;;;;4.09;80.74;99386.63;2962903;78;21154;-69
2021/01/19 16:47:44;;;;;;;24.80;12.58;;;;;;;4.09;80.91;99384.00;2961475;80;21108;-69
2021/01/19 16:51:47;;;;;;;18.80;11.70;;;;;;;4.10;80.88;99377.78;3011196;78;21098;-69
2021/01/19 16:55:51;;;;;;;23.32;15.70;;;;;;;4.14;81.08;99378.79;2988093;79;21585;-70
2021/01/19 16:59:53;;;;;;;47.20;22.27;;;;;;;4.20;80.96;99368.28;2982007;79;21155;-69
2021/01/19 17:03:58;;;;;;;52.33;33.33;;;;;;;4.26;80.72;99359.12;2982103;79;21149;-70
2021/01/19 17:08:06;;;;;;;50.88;34.10;;;;;;;4.33;80.63;99359.07;2974734;79;21615;-68
2021/01/19 17:12:10;;;;;;;117.60;64.70;;;;;;;4.41;80.33;99356.72;2931201;79;21135;-68
2021/01/19 17:16:17;;;;;;;173.57;79.77;;;;;;;4.42;80.11;99349.64;2960735;79;21156;-68
2021/01/19 17:20:20;;;;;;;213.95;114.30;;;;;;;4.43;80.05;99349.55;2981936;79;22238;-67
2021/01/19 17:24:23;;;;;;;116.37;64.65;;;;;;;4.48;80.19;99339.16;2982041;79;21121;-69
2021/01/19 17:28:27;;;;;;;123.60;70.03;;;;;;;4.49;79.92;99339.52;2981933;79;21650;-68
2021/01/19 17:32:30;;;;;;;121.42;63.95;;;;;;;4.53;79.89;99338.37;2982336;79;21112;-68
2021/01/19 17:36:34;;;;;;;40.98;22.10;;;;;;;4.61;79.76;99337.33;2981947;79;21140;-66
2021/01/19 17:40:37;;;;;;;14.47;10.18;;;;;;;4.64;79.16;99333.64;2982276;79;21077;-68
2021/01/19 17:44:43;;;;;;;18.85;10.72;;;;;;;4.71;78.93;99338.33;2982147;79;21172;-68
2021/01/19 17:48:46;;;;;;;17.20;9.98;;;;;;;4.78;78.48;99320.78;2981868;79;21156;-67
2021/01/19 17:52:51;;;;;;;15.70;9.48;;;;;;;4.81;78.13;99321.87;2981924;79;21579;-66
2021/01/19 17:56:54;;;;;;;14.63;9.53;;;;;;;4.86;77.96;99315.77;2982192;79;21614;-68
2021/01/19 18:00:57;;;;;;;12.37;8.80;;;;;;;4.89;77.78;99319.98;2982240;79;21117;-68
2021/01/19 18:05:00;;;;;;;20.57;12.18;;;;;;;4.86;77.41;99319.27;2981837;79;21166;-65
2021/01/19 18:09:06;;;;;;;18.10;8.60;;;;;;;4.91;77.08;99319.39;2982020;79;21581;-68
2021/01/19 18:13:09;;;;;;;;;;;;;;;4.92;76.97;99316.66;2984950;79;21172;-67
2021/01/19 18:17:12;;;;;;;7.37;6.60;;;;;;;4.93;77.04;99326.70;2982147;79;20258;-68
2021/01/19 18:21:16;;;;;;;7.87;5.20;;;;;;;4.94;76.84;99327.92;2982148;79;22276;-68
2021/01/19 18:25:18;;;;;;;8.30;5.75;;;;;;;4.96;76.51;99324.70;2982130;79;21141;-69
2021/01/19 18:29:23;;;;;;;7.10;5.03;;;;;;;4.95;76.31;99321.70;2981918;79;21100;-67
2021/01/19 18:33:28;;;;;;;9.53;5.58;;;;;;;4.93;76.32;99322.75;2982271;79;21140;-65
2021/01/19 18:37:32;;;;;;;7.20;5.03;;;;;;;4.97;76.32;99319.78;2979356;79;21128;-65
2021/01/19 18:41:36;;;;;;;18.50;7.50;;;;;;;4.98;76.26;99321.92;2978498;79;21156;-65
2021/01/19 18:46:02;;;;;;;11.08;4.90;;;;;;;4.99;76.05;99323.14;2982353;79;21182;-64
2021/01/19 18:50:28;;;;;;;7.70;4.45;;;;;;;5.02;75.96;99322.55;2877754;82;21139;-65
2021/01/19 18:54:32;;;;;;;10.32;6.20;;;;;;;5.02;76.12;99327.82;2913390;81;22057;-65
2021/01/19 18:58:35;;;;;;;7.60;5.95;;;;;;;5.02;76.17;99331.78;2928410;80;21422;-64
2021/01/19 19:02:38;;;;;;;8.20;5.75;;;;;;;5.04;76.06;99327.23;2971600;80;21137;-64
2021/01/19 19:06:44;;;;;;;7.53;5.80;;;;;;;5.08;75.93;99322.08;2924865;80;21161;-65
2021/01/19 19:10:47;;;;;;;10.08;5.65;;;;;;;5.11;75.78;99312.63;2979675;79;21117;-65
2021/01/19 19:14:50;;;;;;;6.85;5.37;;;;;;;5.06;75.97;99316.09;2979939;79;21113;-65
2021/01/19 19:18:53;;;;;;;10.38;8.43;;;;;;;5.08;76.13;99319.45;2983094;79;21093;-64